sensor_id;sensor_type;location;lat;lon;timestamp;pressure;altitude;pressure_sealevel;temperature;humidity
64610;BME280;51019;46.090;6.350;2023-07-30T00:00:23;96580.06;;;18.42;100.00
64610;BME280;51019;46.090;6.350;2023-07-30T00:02:54;96600.13;;;18.45;100.00
64610;BME280;51019;46.090;6.350;2023-07-30T00:05:23;96595.19;;;18.63;100.00
64610;BME280;51019;46.090;6.350;2023-07-30T00:07:57;96588.28;;;18.62;100.00
64610;BME280;51019;46.090;6.350;2023-07-30T00:10:25;96591.78;;;18.69;100.00
64610;BME280;51019;46.090;6.350;2023-07-30T00:12:53;96591.75;;;18.91;100.00
64610;BME280;51019;46.090;6.350;2023-07-30T00:15:22;96571.69;;;18.81;100.00
64610;BME280;51019;46.090;6.350;2023-07-30T00:17:52;96587.97;;;18.57;100.00
64610;BME280;51019;46.090;6.350;2023-07-30T00:20:22;96584.47;;;18.71;100.00
64610;BME280;51019;46.090;6.350;2023-07-30T00:22:50;96588.75;;;18.72;100.00
64610;BME280;51019;46.090;6.350;2023-07-30T00:25:20;96600.25;;;18.79;100.00
64610;BME280;51019;46.090;6.350;2023-07-30T00:27:48;96595.75;;;18.80;100.00
64610;BME280;51019;46.090;6.350;2023-07-30T00:30:16;96600.72;;;18.90;100.00
64610;BME280;51019;46.090;6.350;2023-07-30T00:32:44;96596.69;;;18.94;100.00
64610;BME280;51019;46.090;6.350;2023-07-30T00:35:12;96586.41;;;18.84;100.00
64610;BME280;51019;46.090;6.350;2023-07-30T00:37:43;96583.56;;;18.64;100.00
64610;BME280;51019;46.090;6.350;2023-07-30T00:40:11;96583.53;;;18.58;100.00
64610;BME280;51019;46.090;6.350;2023-07-30T00:42:39;96570.88;;;18.60;100.00
64610;BME280;51019;46.090;6.350;2023-07-30T00:45:09;96581.63;;;18.73;100.00
64610;BME280;51019;46.090;6.350;2023-07-30T00:47:37;96578.06;;;18.66;100.00
64610;BME280;51019;46.090;6.350;2023-07-30T00:50:08;96575.19;;;18.61;100.00
64610;BME280;51019;46.090;6.350;2023-07-30T00:52:38;96575.69;;;18.71;100.00
64610;BME280;51019;46.090;6.350;2023-07-30T00:55:09;96587.44;;;18.62;100.00
64610;BME280;51019;46.090;6.350;2023-07-30T00:57:36;96590.72;;;18.64;100.00
64610;BME280;51019;46.090;6.350;2023-07-30T01:00:08;96589.00;;;18.56;100.00
64610;BME280;51019;46.090;6.350;2023-07-30T01:02:36;96587.50;;;18.68;100.00
64610;BME280;51019;46.090;6.350;2023-07-30T01:05:06;96582.28;;;18.81;100.00
64610;BME280;51019;46.090;6.350;2023-07-30T01:07:34;96580.28;;;18.83;100.00
64610;BME280;51019;46.090;6.350;2023-07-30T01:10:02;96587.59;;;18.81;100.00
64610;BME280;51019;46.090;6.350;2023-07-30T01:12:36;96592.03;;;18.74;100.00
64610;BME280;51019;46.090;6.350;2023-07-30T01:15:06;96592.16;;;18.66;100.00
64610;BME280;51019;46.090;6.350;2023-07-30T01:17:35;96588.31;;;18.69;100.00
64610;BME280;51019;46.090;6.350;2023-07-30T01:20:03;96585.69;;;18.75;100.00
64610;BME280;51019;46.090;6.350;2023-07-30T01:22:32;96576.34;;;18.79;100.00
64610;BME280;51019;46.090;6.350;2023-07-30T01:25:01;96593.59;;;18.90;100.00
64610;BME280;51019;46.090;6.350;2023-07-30T01:27:31;96581.03;;;18.77;100.00
64610;BME280;51019;46.090;6.350;2023-07-30T01:30:08;96577.63;;;18.83;100.00
64610;BME280;51019;46.090;6.350;2023-07-30T01:32:40;96565.28;;;18.76;100.00
64610;BME280;51019;46.090;6.350;2023-07-30T01:35:08;96576.78;;;18.83;100.00
64610;BME280;51019;46.090;6.350;2023-07-30T01:37:40;96570.28;;;18.64;100.00
64610;BME280;51019;46.090;6.350;2023-07-30T01:40:09;96585.03;;;18.67;100.00
64610;BME280;51019;46.090;6.350;2023-07-30T01:42:39;96577.09;;;18.52;100.00
64610;BME280;51019;46.090;6.350;2023-07-30T01:45:07;96600.41;;;18.71;100.00
64610;BME280;51019;46.090;6.350;2023-07-30T01:47:35;96580.22;;;18.77;100.00
64610;BME280;51019;46.090;6.350;2023-07-30T01:50:03;96570.41;;;18.77;100.00
64610;BME280;51019;46.090;6.350;2023-07-30T01:52:30;96574.66;;;18.72;100.00
64610;BME280;51019;46.090;6.350;2023-07-30T01:54:59;96586.09;;;19.00;100.00
64610;BME280;51019;46.090;6.350;2023-07-30T01:57:28;96582.41;;;18.95;100.00
64610;BME280;51019;46.090;6.350;2023-07-30T01:59:55;96585.78;;;18.82;100.00
64610;BME280;51019;46.090;6.350;2023-07-30T02:02:23;96582.81;;;18.70;100.00
64610;BME280;51019;46.090;6.350;2023-07-30T02:04:50;96563.66;;;18.54;100.00
64610;BME280;51019;46.090;6.350;2023-07-30T02:07:17;96561.81;;;18.11;100.00
64610;BME280;51019;46.090;6.350;2023-07-30T02:09:45;96567.41;;;18.59;100.00
64610;BME280;51019;46.090;6.350;2023-07-30T02:12:14;96551.78;;;18.49;100.00
64610;BME280;51019;46.090;6.350;2023-07-30T02:14:41;96528.00;;;18.13;100.00
64610;BME280;51019;46.090;6.350;2023-07-30T02:17:08;96569.88;;;18.39;100.00
64610;BME280;51019;46.090;6.350;2023-07-30T02:19:36;96574.97;;;18.41;100.00
64610;BME280;51019;46.090;6.350;2023-07-30T02:22:03;96583.81;;;18.48;100.00
64610;BME280;51019;46.090;6.350;2023-07-30T02:24:31;96566.25;;;18.26;100.00
64610;BME280;51019;46.090;6.350;2023-07-30T02:26:58;96574.22;;;18.26;100.00
64610;BME280;51019;46.090;6.350;2023-07-30T02:29:27;96555.53;;;18.12;100.00
64610;BME280;51019;46.090;6.350;2023-07-30T02:31:56;96575.91;;;18.12;100.00
64610;BME280;51019;46.090;6.350;2023-07-30T02:34:25;96589.44;;;18.17;100.00
64610;BME280;51019;46.090;6.350;2023-07-30T02:36:52;96591.63;;;18.13;100.00
64610;BME280;51019;46.090;6.350;2023-07-30T02:39:19;96595.69;;;17.95;100.00
64610;BME280;51019;46.090;6.350;2023-07-30T02:41:47;96588.66;;;18.02;100.00
64610;BME280;51019;46.090;6.350;2023-07-30T02:44:14;96586.19;;;18.00;100.00
64610;BME280;51019;46.090;6.350;2023-07-30T02:46:43;96585.06;;;18.31;100.00
64610;BME280;51019;46.090;6.350;2023-07-30T02:49:11;96582.91;;;18.20;100.00
64610;BME280;51019;46.090;6.350;2023-07-30T02:51:38;96578.53;;;18.27;100.00
64610;BME280;51019;46.090;6.350;2023-07-30T02:54:07;96567.72;;;18.28;100.00
64610;BME280;51019;46.090;6.350;2023-07-30T02:56:35;96559.19;;;18.11;100.00
64610;BME280;51019;46.090;6.350;2023-07-30T02:59:02;96563.78;;;18.24;100.00
64610;BME280;51019;46.090;6.350;2023-07-30T03:01:29;96576.69;;;18.27;100.00
64610;BME280;51019;46.090;6.350;2023-07-30T03:03:59;96564.75;;;18.17;100.00
64610;BME280;51019;46.090;6.350;2023-07-30T03:06:27;96580.22;;;18.34;100.00
64610;BME280;51019;46.090;6.350;2023-07-30T03:08:55;96574.13;;;18.40;100.00
64610;BME280;51019;46.090;6.350;2023-07-30T03:11:22;96570.66;;;18.40;100.00
64610;BME280;51019;46.090;6.350;2023-07-30T03:13:49;96571.41;;;18.55;100.00
64610;BME280;51019;46.090;6.350;2023-07-30T03:16:17;96580.16;;;18.28;100.00
64610;BME280;51019;46.090;6.350;2023-07-30T03:18:44;96577.56;;;18.34;100.00
64610;BME280;51019;46.090;6.350;2023-07-30T03:21:13;96570.59;;;18.55;100.00
64610;BME280;51019;46.090;6.350;2023-07-30T03:23:40;96566.88;;;18.49;100.00
64610;BME280;51019;46.090;6.350;2023-07-30T03:26:11;96568.31;;;18.51;100.00
64610;BME280;51019;46.090;6.350;2023-07-30T03:28:38;96581.03;;;18.56;100.00
64610;BME280;51019;46.090;6.350;2023-07-30T03:31:06;96578.75;;;18.53;100.00
64610;BME280;51019;46.090;6.350;2023-07-30T03:33:33;96587.28;;;18.48;100.00
64610;BME280;51019;46.090;6.350;2023-07-30T03:36:00;96586.03;;;18.66;100.00
64610;BME280;51019;46.090;6.350;2023-07-30T03:38:29;96589.97;;;18.70;100.00
64610;BME280;51019;46.090;6.350;2023-07-30T03:40:57;96582.97;;;18.62;100.00
64610;BME280;51019;46.090;6.350;2023-07-30T03:43:24;96587.00;;;18.58;100.00
64610;BME280;51019;46.090;6.350;2023-07-30T03:45:51;96588.16;;;18.56;100.00
64610;BME280;51019;46.090;6.350;2023-07-30T03:48:18;96593.44;;;18.70;100.00
64610;BME280;51019;46.090;6.350;2023-07-30T03:50:46;96601.59;;;18.69;100.00
64610;BME280;51019;46.090;6.350;2023-07-30T03:53:13;96600.44;;;18.78;100.00
64610;BME280;51019;46.090;6.350;2023-07-30T03:55:42;96598.59;;;18.78;100.00
64610;BME280;51019;46.090;6.350;2023-07-30T03:58:09;96571.13;;;18.65;100.00
64610;BME280;51019;46.090;6.350;2023-07-30T04:00:37;96593.34;;;18.85;100.00
64610;BME280;51019;46.090;6.350;2023-07-30T04:03:05;96580.59;;;18.74;100.00
64610;BME280;51019;46.090;6.350;2023-07-30T04:05:32;96592.03;;;18.74;100.00
64610;BME280;51019;46.090;6.350;2023-07-30T04:07:59;96591.66;;;18.77;100.00
64610;BME280;51019;46.090;6.350;2023-07-30T04:10:29;96593.06;;;18.73;100.00
64610;BME280;51019;46.090;6.350;2023-07-30T04:12:59;96595.00;;;18.43;100.00
64610;BME280;51019;46.090;6.350;2023-07-30T04:15:27;96581.72;;;18.22;100.00
64610;BME280;51019;46.090;6.350;2023-07-30T04:17:54;96597.28;;;18.46;100.00
64610;BME280;51019;46.090;6.350;2023-07-30T04:20:22;96606.88;;;18.47;100.00
64610;BME280;51019;46.090;6.350;2023-07-30T04:22:49;96611.88;;;18.36;100.00
64610;BME280;51019;46.090;6.350;2023-07-30T04:25:16;96605.59;;;18.58;100.00
64610;BME280;51019;46.090;6.350;2023-07-30T04:27:44;96612.00;;;18.49;100.00
64610;BME280;51019;46.090;6.350;2023-07-30T04:30:12;96616.31;;;18.50;100.00
64610;BME280;51019;46.090;6.350;2023-07-30T04:32:39;96598.16;;;18.32;100.00
64610;BME280;51019;46.090;6.350;2023-07-30T04:35:07;96585.34;;;18.36;100.00
64610;BME280;51019;46.090;6.350;2023-07-30T04:37:34;96607.25;;;18.44;100.00
64610;BME280;51019;46.090;6.350;2023-07-30T04:40:02;96588.88;;;18.43;100.00
64610;BME280;51019;46.090;6.350;2023-07-30T04:42:29;96611.00;;;18.50;100.00
64610;BME280;51019;46.090;6.350;2023-07-30T04:44:57;96620.00;;;18.56;100.00
64610;BME280;51019;46.090;6.350;2023-07-30T04:47:26;96620.72;;;18.43;100.00
64610;BME280;51019;46.090;6.350;2023-07-30T04:49:53;96617.84;;;18.59;100.00
64610;BME280;51019;46.090;6.350;2023-07-30T04:52:20;96622.34;;;18.59;100.00
64610;BME280;51019;46.090;6.350;2023-07-30T04:54:47;96612.94;;;18.63;100.00
64610;BME280;51019;46.090;6.350;2023-07-30T04:57:15;96622.81;;;18.69;100.00
64610;BME280;51019;46.090;6.350;2023-07-30T04:59:42;96626.75;;;18.73;100.00
64610;BME280;51019;46.090;6.350;2023-07-30T05:02:09;96631.09;;;18.80;100.00
64610;BME280;51019;46.090;6.350;2023-07-30T05:04:38;96627.16;;;18.55;100.00
64610;BME280;51019;46.090;6.350;2023-07-30T05:07:06;96602.25;;;18.56;100.00
64610;BME280;51019;46.090;6.350;2023-07-30T05:09:34;96630.47;;;18.78;100.00
64610;BME280;51019;46.090;6.350;2023-07-30T05:12:02;96637.94;;;18.96;100.00
64610;BME280;51019;46.090;6.350;2023-07-30T05:14:29;96614.88;;;18.69;100.00
64610;BME280;51019;46.090;6.350;2023-07-30T05:16:58;96629.25;;;18.81;100.00
64610;BME280;51019;46.090;6.350;2023-07-30T05:19:30;96640.72;;;18.81;100.00
64610;BME280;51019;46.090;6.350;2023-07-30T05:22:01;96652.84;;;18.69;100.00
64610;BME280;51019;46.090;6.350;2023-07-30T05:24:28;96643.94;;;18.41;100.00
64610;BME280;51019;46.090;6.350;2023-07-30T05:26:55;96642.03;;;18.49;100.00
64610;BME280;51019;46.090;6.350;2023-07-30T05:29:24;96657.50;;;18.10;100.00
64610;BME280;51019;46.090;6.350;2023-07-30T05:31:54;96651.19;;;18.11;100.00
64610;BME280;51019;46.090;6.350;2023-07-30T05:34:22;96644.22;;;18.10;100.00
64610;BME280;51019;46.090;6.350;2023-07-30T05:36:49;96644.75;;;18.20;100.00
64610;BME280;51019;46.090;6.350;2023-07-30T05:39:18;96660.81;;;18.33;100.00
64610;BME280;51019;46.090;6.350;2023-07-30T05:41:48;96655.94;;;18.16;100.00
64610;BME280;51019;46.090;6.350;2023-07-30T05:44:15;96648.00;;;18.01;100.00
64610;BME280;51019;46.090;6.350;2023-07-30T05:46:44;96679.81;;;18.16;100.00
64610;BME280;51019;46.090;6.350;2023-07-30T05:49:13;96688.59;;;17.87;100.00
64610;BME280;51019;46.090;6.350;2023-07-30T05:51:43;96690.91;;;18.04;100.00
64610;BME280;51019;46.090;6.350;2023-07-30T05:54:18;96689.84;;;18.20;100.00
64610;BME280;51019;46.090;6.350;2023-07-30T05:56:47;96692.84;;;18.32;100.00
64610;BME280;51019;46.090;6.350;2023-07-30T05:59:15;96680.25;;;18.19;100.00
64610;BME280;51019;46.090;6.350;2023-07-30T06:01:42;96684.53;;;18.20;100.00
64610;BME280;51019;46.090;6.350;2023-07-30T06:04:10;96682.06;;;18.19;100.00
64610;BME280;51019;46.090;6.350;2023-07-30T06:06:37;96678.38;;;18.34;100.00
64610;BME280;51019;46.090;6.350;2023-07-30T06:09:09;96690.47;;;18.37;100.00
64610;BME280;51019;46.090;6.350;2023-07-30T06:11:41;96672.06;;;18.35;100.00
64610;BME280;51019;46.090;6.350;2023-07-30T06:14:09;96694.88;;;18.51;100.00
64610;BME280;51019;46.090;6.350;2023-07-30T06:16:37;96688.50;;;18.45;100.00
64610;BME280;51019;46.090;6.350;2023-07-30T06:19:05;96693.19;;;18.79;100.00
64610;BME280;51019;46.090;6.350;2023-07-30T06:21:34;96687.53;;;19.10;100.00
64610;BME280;51019;46.090;6.350;2023-07-30T06:24:02;96703.81;;;19.50;100.00
64610;BME280;51019;46.090;6.350;2023-07-30T06:26:29;96704.34;;;19.45;100.00
64610;BME280;51019;46.090;6.350;2023-07-30T06:28:59;96702.72;;;19.72;100.00
64610;BME280;51019;46.090;6.350;2023-07-30T06:31:27;96693.75;;;19.80;100.00
64610;BME280;51019;46.090;6.350;2023-07-30T06:33:55;96691.69;;;19.75;100.00
64610;BME280;51019;46.090;6.350;2023-07-30T06:36:22;96698.81;;;20.09;100.00
64610;BME280;51019;46.090;6.350;2023-07-30T06:38:50;96685.66;;;19.94;100.00
64610;BME280;51019;46.090;6.350;2023-07-30T06:41:18;96718.50;;;20.08;100.00
64610;BME280;51019;46.090;6.350;2023-07-30T06:43:47;96711.84;;;19.91;100.00
64610;BME280;51019;46.090;6.350;2023-07-30T06:46:17;96717.22;;;19.70;100.00
64610;BME280;51019;46.090;6.350;2023-07-30T06:48:44;96722.94;;;20.01;100.00
64610;BME280;51019;46.090;6.350;2023-07-30T06:51:14;96721.72;;;20.04;100.00
64610;BME280;51019;46.090;6.350;2023-07-30T06:53:43;96719.38;;;20.28;100.00
64610;BME280;51019;46.090;6.350;2023-07-30T06:56:10;96713.63;;;20.18;100.00
64610;BME280;51019;46.090;6.350;2023-07-30T06:58:39;96708.25;;;20.12;100.00
64610;BME280;51019;46.090;6.350;2023-07-30T07:01:09;96705.78;;;20.10;100.00
64610;BME280;51019;46.090;6.350;2023-07-30T07:03:40;96680.19;;;20.09;100.00
64610;BME280;51019;46.090;6.350;2023-07-30T07:06:09;96713.00;;;20.71;100.00
64610;BME280;51019;46.090;6.350;2023-07-30T07:08:37;96695.22;;;21.04;100.00
64610;BME280;51019;46.090;6.350;2023-07-30T07:11:09;96704.44;;;21.15;100.00
64610;BME280;51019;46.090;6.350;2023-07-30T07:13:37;96712.28;;;21.29;100.00
64610;BME280;51019;46.090;6.350;2023-07-30T07:16:08;96714.09;;;21.22;100.00
64610;BME280;51019;46.090;6.350;2023-07-30T07:18:38;96686.88;;;21.20;100.00
64610;BME280;51019;46.090;6.350;2023-07-30T07:21:17;96710.97;;;20.79;100.00
64610;BME280;51019;46.090;6.350;2023-07-30T07:23:46;96694.59;;;21.15;100.00
64610;BME280;51019;46.090;6.350;2023-07-30T07:26:14;96706.53;;;21.26;100.00
64610;BME280;51019;46.090;6.350;2023-07-30T07:28:44;96696.28;;;21.43;100.00
64610;BME280;51019;46.090;6.350;2023-07-30T07:31:12;96705.69;;;21.58;100.00
64610;BME280;51019;46.090;6.350;2023-07-30T07:33:44;96696.41;;;21.81;100.00
64610;BME280;51019;46.090;6.350;2023-07-30T07:36:17;96671.47;;;21.42;100.00
64610;BME280;51019;46.090;6.350;2023-07-30T07:38:48;96682.69;;;20.78;100.00
64610;BME280;51019;46.090;6.350;2023-07-30T07:41:16;96684.97;;;20.94;100.00
64610;BME280;51019;46.090;6.350;2023-07-30T07:43:47;96692.94;;;22.00;100.00
64610;BME280;51019;46.090;6.350;2023-07-30T07:46:30;96701.59;;;21.49;100.00
64610;BME280;51019;46.090;6.350;2023-07-30T07:48:58;96661.13;;;21.79;100.00
64610;BME280;51019;46.090;6.350;2023-07-30T07:51:28;96702.19;;;21.71;100.00
64610;BME280;51019;46.090;6.350;2023-07-30T07:53:57;96706.97;;;22.33;100.00
64610;BME280;51019;46.090;6.350;2023-07-30T07:56:29;96669.28;;;22.55;100.00
64610;BME280;51019;46.090;6.350;2023-07-30T07:58:59;96668.94;;;23.07;100.00
64610;BME280;51019;46.090;6.350;2023-07-30T08:01:28;96718.50;;;23.84;100.00
64610;BME280;51019;46.090;6.350;2023-07-30T08:03:55;96700.78;;;23.65;100.00
64610;BME280;51019;46.090;6.350;2023-07-30T08:06:24;96644.69;;;22.39;100.00
64610;BME280;51019;46.090;6.350;2023-07-30T08:08:53;96687.31;;;22.59;100.00
64610;BME280;51019;46.090;6.350;2023-07-30T08:11:21;96686.69;;;23.51;100.00
64610;BME280;51019;46.090;6.350;2023-07-30T08:13:50;96724.16;;;23.20;100.00
64610;BME280;51019;46.090;6.350;2023-07-30T08:16:20;96686.72;;;22.95;100.00
64610;BME280;51019;46.090;6.350;2023-07-30T08:18:49;96726.97;;;23.32;100.00
64610;BME280;51019;46.090;6.350;2023-07-30T08:21:18;96738.34;;;23.77;100.00
64610;BME280;51019;46.090;6.350;2023-07-30T08:23:46;96723.28;;;23.58;100.00
64610;BME280;51019;46.090;6.350;2023-07-30T08:26:18;96725.72;;;23.34;100.00
64610;BME280;51019;46.090;6.350;2023-07-30T08:28:45;96731.78;;;23.16;100.00
64610;BME280;51019;46.090;6.350;2023-07-30T08:31:14;96728.09;;;23.17;100.00
64610;BME280;51019;46.090;6.350;2023-07-30T08:33:43;96726.25;;;22.80;100.00
64610;BME280;51019;46.090;6.350;2023-07-30T08:36:12;96722.16;;;22.84;100.00
64610;BME280;51019;46.090;6.350;2023-07-30T08:38:39;96711.41;;;21.88;100.00
64610;BME280;51019;46.090;6.350;2023-07-30T08:41:07;96702.31;;;22.16;100.00
64610;BME280;51019;46.090;6.350;2023-07-30T08:43:39;96729.59;;;22.75;100.00
64610;BME280;51019;46.090;6.350;2023-07-30T08:46:06;96731.06;;;23.03;100.00
64610;BME280;51019;46.090;6.350;2023-07-30T08:48:34;96621.75;;;22.25;100.00
64610;BME280;51019;46.090;6.350;2023-07-30T08:51:01;96725.34;;;22.99;100.00
64610;BME280;51019;46.090;6.350;2023-07-30T08:53:32;96709.25;;;22.30;100.00
64610;BME280;51019;46.090;6.350;2023-07-30T08:56:01;96726.69;;;23.40;100.00
64610;BME280;51019;46.090;6.350;2023-07-30T08:58:31;96724.56;;;22.92;100.00
64610;BME280;51019;46.090;6.350;2023-07-30T09:01:08;96723.22;;;23.08;100.00
64610;BME280;51019;46.090;6.350;2023-07-30T09:03:38;96720.81;;;23.81;100.00
64610;BME280;51019;46.090;6.350;2023-07-30T09:06:06;96723.94;;;24.51;100.00
64610;BME280;51019;46.090;6.350;2023-07-30T09:08:36;96721.41;;;24.86;100.00
64610;BME280;51019;46.090;6.350;2023-07-30T09:11:08;96708.13;;;24.31;100.00
64610;BME280;51019;46.090;6.350;2023-07-30T09:13:37;96650.03;;;23.34;100.00
64610;BME280;51019;46.090;6.350;2023-07-30T09:16:10;96733.19;;;24.55;100.00
64610;BME280;51019;46.090;6.350;2023-07-30T09:18:42;96734.59;;;24.21;100.00
64610;BME280;51019;46.090;6.350;2023-07-30T09:21:11;96732.19;;;24.49;99.72
64610;BME280;51019;46.090;6.350;2023-07-30T09:23:45;96731.75;;;24.71;97.65
64610;BME280;51019;46.090;6.350;2023-07-30T09:26:14;96719.38;;;24.70;96.97
64610;BME280;51019;46.090;6.350;2023-07-30T09:28:42;96724.50;;;24.23;100.00
64610;BME280;51019;46.090;6.350;2023-07-30T09:31:12;96734.66;;;24.51;95.32
64610;BME280;51019;46.090;6.350;2023-07-30T09:33:41;96730.56;;;24.96;95.19
64610;BME280;51019;46.090;6.350;2023-07-30T09:36:10;96725.88;;;25.22;100.00
64610;BME280;51019;46.090;6.350;2023-07-30T09:38:39;96676.78;;;25.21;94.89
64610;BME280;51019;46.090;6.350;2023-07-30T09:41:07;96714.66;;;25.78;94.96
64610;BME280;51019;46.090;6.350;2023-07-30T09:43:37;96714.78;;;25.95;87.84
64610;BME280;51019;46.090;6.350;2023-07-30T09:46:06;96714.97;;;25.58;86.61
64610;BME280;51019;46.090;6.350;2023-07-30T09:48:35;96698.47;;;25.31;91.36
64610;BME280;51019;46.090;6.350;2023-07-30T09:51:06;96720.69;;;25.85;89.88
64610;BME280;51019;46.090;6.350;2023-07-30T09:53:33;96722.19;;;26.39;86.30
64610;BME280;51019;46.090;6.350;2023-07-30T09:56:01;96726.50;;;27.09;87.63
64610;BME280;51019;46.090;6.350;2023-07-30T09:58:30;96732.38;;;27.23;84.24
64610;BME280;51019;46.090;6.350;2023-07-30T10:00:58;96734.47;;;26.35;82.36
64610;BME280;51019;46.090;6.350;2023-07-30T10:03:31;96726.59;;;26.86;78.16
64610;BME280;51019;46.090;6.350;2023-07-30T10:06:03;96721.56;;;26.61;78.46
64610;BME280;51019;46.090;6.350;2023-07-30T10:08:34;96723.47;;;26.77;76.77
64610;BME280;51019;46.090;6.350;2023-07-30T10:11:05;96724.97;;;26.85;76.66
64610;BME280;51019;46.090;6.350;2023-07-30T10:13:38;96723.91;;;26.86;78.09
64610;BME280;51019;46.090;6.350;2023-07-30T10:16:09;96734.88;;;27.41;71.05
64610;BME280;51019;46.090;6.350;2023-07-30T10:18:38;96733.25;;;27.40;70.40
64610;BME280;51019;46.090;6.350;2023-07-30T10:21:10;96728.28;;;27.82;69.01
64610;BME280;51019;46.090;6.350;2023-07-30T10:23:59;96728.44;;;27.92;66.64
64610;BME280;51019;46.090;6.350;2023-07-30T10:26:28;96711.38;;;27.36;66.78
64610;BME280;51019;46.090;6.350;2023-07-30T10:29:13;96726.63;;;27.47;63.10
64610;BME280;51019;46.090;6.350;2023-07-30T10:31:45;96735.72;;;26.96;63.43
64610;BME280;51019;46.090;6.350;2023-07-30T10:34:15;96735.16;;;27.11;65.99
64610;BME280;51019;46.090;6.350;2023-07-30T10:36:48;96733.69;;;26.63;67.16
64610;BME280;51019;46.090;6.350;2023-07-30T10:39:19;96738.47;;;26.73;68.35
64610;BME280;51019;46.090;6.350;2023-07-30T10:41:50;96712.78;;;26.94;67.53
64610;BME280;51019;46.090;6.350;2023-07-30T10:44:23;96728.63;;;27.07;64.93
64610;BME280;51019;46.090;6.350;2023-07-30T10:46:53;96722.06;;;27.48;65.94
64610;BME280;51019;46.090;6.350;2023-07-30T10:49:24;96724.47;;;28.00;63.57
64610;BME280;51019;46.090;6.350;2023-07-30T10:51:58;96733.56;;;27.94;64.46
64610;BME280;51019;46.090;6.350;2023-07-30T10:54:26;96721.19;;;28.14;63.60
64610;BME280;51019;46.090;6.350;2023-07-30T10:56:55;96706.59;;;27.55;62.28
64610;BME280;51019;46.090;6.350;2023-07-30T10:59:32;96732.47;;;28.50;59.19
64610;BME280;51019;46.090;6.350;2023-07-30T11:02:02;96722.75;;;26.82;66.16
64610;BME280;51019;46.090;6.350;2023-07-30T11:04:34;96702.56;;;27.24;63.39
64610;BME280;51019;46.090;6.350;2023-07-30T11:07:18;96715.97;;;27.53;62.85
64610;BME280;51019;46.090;6.350;2023-07-30T11:09:58;96716.59;;;27.43;62.35
64610;BME280;51019;46.090;6.350;2023-07-30T11:12:29;96713.75;;;27.83;60.86
64610;BME280;51019;46.090;6.350;2023-07-30T11:15:04;96690.44;;;27.72;61.13
64610;BME280;51019;46.090;6.350;2023-07-30T11:17:33;96696.16;;;28.36;59.03
64610;BME280;51019;46.090;6.350;2023-07-30T11:20:03;96707.47;;;28.54;59.44
64610;BME280;51019;46.090;6.350;2023-07-30T11:22:35;96709.81;;;27.91;60.21
64610;BME280;51019;46.090;6.350;2023-07-30T11:25:02;96708.75;;;29.22;56.36
64610;BME280;51019;46.090;6.350;2023-07-30T11:27:44;96725.72;;;29.50;55.95
64610;BME280;51019;46.090;6.350;2023-07-30T11:30:15;96706.53;;;27.89;58.90
64610;BME280;51019;46.090;6.350;2023-07-30T11:33:08;96710.34;;;27.71;59.59
64610;BME280;51019;46.090;6.350;2023-07-30T11:35:44;96673.69;;;28.74;57.46
64610;BME280;51019;46.090;6.350;2023-07-30T11:38:13;96699.50;;;28.43;56.61
64610;BME280;51019;46.090;6.350;2023-07-30T11:40:42;96689.69;;;28.80;56.38
64610;BME280;51019;46.090;6.350;2023-07-30T11:43:10;96693.72;;;29.69;53.58
64610;BME280;51019;46.090;6.350;2023-07-30T11:45:38;96712.50;;;29.21;52.37
64610;BME280;51019;46.090;6.350;2023-07-30T11:48:06;96713.41;;;29.32;53.23
64610;BME280;51019;46.090;6.350;2023-07-30T11:50:49;96697.72;;;29.61;51.23
64610;BME280;51019;46.090;6.350;2023-07-30T11:53:18;96702.63;;;29.64;51.46
64610;BME280;51019;46.090;6.350;2023-07-30T11:55:46;96715.72;;;29.45;48.70
64610;BME280;51019;46.090;6.350;2023-07-30T11:58:13;96712.88;;;29.35;53.74
64610;BME280;51019;46.090;6.350;2023-07-30T12:00:41;96709.91;;;29.64;50.73
64610;BME280;51019;46.090;6.350;2023-07-30T12:03:11;96699.53;;;29.45;51.88
64610;BME280;51019;46.090;6.350;2023-07-30T12:05:39;96700.16;;;29.31;51.28
64610;BME280;51019;46.090;6.350;2023-07-30T12:08:13;96692.81;;;28.94;53.81
64610;BME280;51019;46.090;6.350;2023-07-30T12:10:44;96689.59;;;28.48;53.12
64610;BME280;51019;46.090;6.350;2023-07-30T12:13:12;96692.63;;;29.65;48.05
64610;BME280;51019;46.090;6.350;2023-07-30T12:15:43;96682.31;;;29.56;49.65
64610;BME280;51019;46.090;6.350;2023-07-30T12:18:12;96690.63;;;30.34;49.40
64610;BME280;51019;46.090;6.350;2023-07-30T12:20:40;96686.69;;;29.36;49.53
64610;BME280;51019;46.090;6.350;2023-07-30T12:23:17;96689.00;;;30.38;49.04
64610;BME280;51019;46.090;6.350;2023-07-30T12:25:46;96677.25;;;29.70;49.27
64610;BME280;51019;46.090;6.350;2023-07-30T12:28:14;96685.19;;;28.64;50.91
64610;BME280;51019;46.090;6.350;2023-07-30T12:30:41;96670.06;;;29.44;49.66
64610;BME280;51019;46.090;6.350;2023-07-30T12:33:09;96677.38;;;29.43;48.96
64610;BME280;51019;46.090;6.350;2023-07-30T12:35:39;96673.03;;;27.46;51.53
64610;BME280;51019;46.090;6.350;2023-07-30T12:38:15;96647.03;;;29.36;48.48
64610;BME280;51019;46.090;6.350;2023-07-30T12:40:57;96671.59;;;28.54;49.81
64610;BME280;51019;46.090;6.350;2023-07-30T12:43:30;96650.19;;;28.21;52.38
64610;BME280;51019;46.090;6.350;2023-07-30T12:45:58;96666.72;;;28.51;51.19
64610;BME280;51019;46.090;6.350;2023-07-30T12:48:29;96666.06;;;29.19;48.56
64610;BME280;51019;46.090;6.350;2023-07-30T12:51:02;96647.84;;;29.74;47.37
64610;BME280;51019;46.090;6.350;2023-07-30T12:53:29;96645.47;;;29.77;47.17
64610;BME280;51019;46.090;6.350;2023-07-30T12:55:59;96668.97;;;30.24;45.66
64610;BME280;51019;46.090;6.350;2023-07-30T12:58:28;96650.44;;;30.53;45.19
64610;BME280;51019;46.090;6.350;2023-07-30T13:00:58;96618.44;;;29.03;45.74
64610;BME280;51019;46.090;6.350;2023-07-30T13:03:27;96657.16;;;29.51;44.92